Terminal Aerodrome Forecast
Issued by NWS Jackson, MS

Home | Current Version | Previous Version | Text Only | Print | Product List | Glossary On
Versions: 1 2 3 4 5 6 7 8 9 10 11 12 13
000
FTUS44 KJAN 272339
TAFMEI
TAF
KMEI 272339Z 2800/2824 19008KT P6SM SCT040
     FM280700 19007KT P6SM BKN012 BKN025
     FM281600 22013G21KT P6SM SCT025 BKN045=

USA.gov is the U.S. government's official web portal to all federal, state and local government web resources and services.